Time;durP1;ratioP1;P1;durP2;ratioP2;P2;SDS_P1;SDS_P2;PMS_P1;PMS_P2;Temp;Humidity;BMP_temperature;BMP_pressure;BME280_temperature;BME280_humidity;BME280_pressure;Samples;Min_cycle;Max_cycle;Signal;HPM_P1;HPM_P2
2023/03/11 00:00:15;;;;;;;2.50;1.85;;;;;;;;;;5002894;28;20266;-85
2023/03/11 00:02:44;;;;;;;2.13;1.92;;;;;;;;;;4984115;28;20187;-85
2023/03/11 00:05:18;;;;;;;1.85;1.75;;;;;;;;;;5000628;28;20270;-85
2023/03/11 00:07:46;;;;;;;4.32;2.30;;;;;;;;;;5000614;28;20305;-85
2023/03/11 00:10:16;;;;;;;2.17;1.98;;;;;;;;;;4985188;28;20289;-85
2023/03/11 00:12:44;;;;;;;4.13;2.35;;;;;;;;;;5000573;28;20285;-86
2023/03/11 00:15:13;;;;;;;6.72;3.55;;;;;;;;;;5000721;28;20293;-85
2023/03/11 00:17:42;;;;;;;8.70;2.78;;;;;;;;;;5000683;28;20262;-84
2023/03/11 00:20:16;;;;;;;7.90;3.40;;;;;;;;;;4996047;28;20585;-85
2023/03/11 00:22:46;;;;;;;4.38;3.00;;;;;;;;;;4980758;28;20280;-85
2023/03/11 00:25:14;;;;;;;4.55;2.28;;;;;;;;;;4980778;28;20241;-85
2023/03/11 00:27:43;;;;;;;2.60;2.08;;;;;;;;;;4981513;28;20266;-85
2023/03/11 00:30:12;;;;;;;6.10;2.35;;;;;;;;;;4980857;28;20567;-85
2023/03/11 00:32:40;;;;;;;7.25;2.13;;;;;;;;;;4980276;28;20263;-85
2023/03/11 00:35:13;;;;;;;2.40;2.20;;;;;;;;;;4981408;28;20286;-85
2023/03/11 00:37:41;;;;;;;2.00;1.90;;;;;;;;;;4979477;28;20180;-85
2023/03/11 00:40:14;;;;;;;2.10;2.00;;;;;;;;;;4980443;28;20291;-85
2023/03/11 00:42:42;;;;;;;3.33;1.90;;;;;;;;;;4981011;28;20235;-85
2023/03/11 00:45:12;;;;;;;2.30;2.13;;;;;;;;;;4964944;28;20230;-85
2023/03/11 00:47:41;;;;;;;1.75;1.65;;;;;;;;;;4981596;28;20290;-85
2023/03/11 00:50:11;;;;;;;7.38;2.10;;;;;;;;;;4980351;28;20298;-85
2023/03/11 00:52:40;;;;;;;3.78;2.75;;;;;;;;;;4978479;28;20645;-85
2023/03/11 00:55:09;;;;;;;4.35;2.13;;;;;;;;;;4979201;28;20318;-85
2023/03/11 00:57:39;;;;;;;3.50;3.17;;;;;;;;;;5008888;28;20613;-85
2023/03/11 01:00:10;;;;;;;2.35;2.15;;;;;;;;;;5001065;28;20621;-85
2023/03/11 01:02:39;;;;;;;3.85;1.90;;;;;;;;;;4999128;28;20613;-85
2023/03/11 01:05:08;;;;;;;2.05;1.95;;;;;;;;;;4998869;28;20226;-85
2023/03/11 01:07:38;;;;;;;1.60;1.50;;;;;;;;;;4982901;28;20765;-85
2023/03/11 01:10:07;;;;;;;2.08;1.98;;;;;;;;;;4983801;28;20714;-86
2023/03/11 01:12:35;;;;;;;6.22;3.10;;;;;;;;;;4999387;28;20290;-85
2023/03/11 01:15:06;;;;;;;2.50;2.30;;;;;;;;;;4998237;28;20289;-85
2023/03/11 01:17:34;;;;;;;2.70;2.50;;;;;;;;;;4981666;28;20202;-85
2023/03/11 01:20:06;;;;;;;3.63;3.33;;;;;;;;;;4981081;28;20314;-84
2023/03/11 01:22:37;;;;;;;6.68;2.90;;;;;;;;;;4996749;28;20195;-85
2023/03/11 01:25:05;;;;;;;4.28;2.97;;;;;;;;;;4981763;28;20306;-85
2023/03/11 01:27:34;;;;;;;4.13;3.72;;;;;;;;;;4982248;28;20202;-85
2023/03/11 01:30:06;;;;;;;5.07;3.15;;;;;;;;;;4980050;28;20334;-85
2023/03/11 01:32:34;;;;;;;8.93;3.42;;;;;;;;;;4981457;28;20270;-85
2023/03/11 01:35:03;;;;;;;10.23;4.80;;;;;;;;;;4979559;28;20581;-85
2023/03/11 01:37:31;;;;;;;7.82;3.42;;;;;;;;;;4963466;28;20243;-85
2023/03/11 01:39:59;;;;;;;7.22;4.82;;;;;;;;;;4978726;28;20246;-85
2023/03/11 01:42:28;;;;;;;5.13;3.88;;;;;;;;;;4980218;28;20220;-84
2023/03/11 01:44:57;;;;;;;5.93;3.13;;;;;;;;;;4961433;28;20231;-84
2023/03/11 01:47:34;;;;;;;3.72;3.40;;;;;;;;;;4963252;28;20246;-84
2023/03/11 01:50:04;;;;;;;4.85;3.85;;;;;;;;;;4978206;28;20290;-85
2023/03/11 01:52:32;;;;;;;8.25;3.40;;;;;;;;;;4979151;28;20295;-86
2023/03/11 01:55:01;;;;;;;6.47;3.50;;;;;;;;;;4981011;28;20267;-86
2023/03/11 01:57:30;;;;;;;5.90;4.38;;;;;;;;;;4989888;28;20344;-86
2023/03/11 02:00:00;;;;;;;4.93;3.60;;;;;;;;;;5014936;28;20285;-86
2023/03/11 02:02:31;;;;;;;3.13;2.97;;;;;;;;;;4999703;28;20883;-86
2023/03/11 02:05:02;;;;;;;3.17;2.88;;;;;;;;;;4982275;28;20632;-86
2023/03/11 02:07:31;;;;;;;2.78;2.58;;;;;;;;;;4982988;28;20305;-85
2023/03/11 02:10:00;;;;;;;6.63;3.22;;;;;;;;;;4987679;28;20711;-85
2023/03/11 02:12:31;;;;;;;3.70;3.38;;;;;;;;;;4962759;28;20180;-86
2023/03/11 02:15:02;;;;;;;3.47;3.17;;;;;;;;;;4978777;28;20577;-85
2023/03/11 02:17:31;;;;;;;2.85;2.65;;;;;;;;;;4982527;28;20278;-85
2023/03/11 02:20:11;;;;;;;5.60;3.38;;;;;;;;;;4966904;28;20327;-85
2023/03/11 02:22:41;;;;;;;6.47;2.55;;;;;;;;;;4984127;28;20282;-85
2023/03/11 02:25:12;;;;;;;3.42;3.22;;;;;;;;;;4967775;28;20318;-85
2023/03/11 02:27:44;;;;;;;5.93;2.45;;;;;;;;;;4983200;28;20631;-85
2023/03/11 02:30:14;;;;;;;2.53;2.42;;;;;;;;;;4983201;28;20192;-84
2023/03/11 02:32:46;;;;;;;2.65;2.45;;;;;;;;;;4983854;28;20279;-86
2023/03/11 02:35:15;;;;;;;3.15;3.03;;;;;;;;;;4984801;28;20325;-85
2023/03/11 02:37:47;;;;;;;2.60;2.40;;;;;;;;;;4984952;28;20294;-84
2023/03/11 02:40:33;;;;;;;3.47;3.00;;;;;;;;;;4984179;28;20278;-85
2023/03/11 02:43:06;;;;;;;7.32;2.67;;;;;;;;;;4967615;28;20690;-85
2023/03/11 02:45:38;;;;;;;2.20;2.10;;;;;;;;;;4983275;28;20420;-85
2023/03/11 02:48:09;;;;;;;2.70;2.50;;;;;;;;;;4983244;28;20276;-86
2023/03/11 02:50:38;;;;;;;2.33;2.10;;;;;;;;;;4983800;28;20200;-85
2023/03/11 02:53:07;;;;;;;9.98;2.80;;;;;;;;;;4983667;28;20317;-85
2023/03/11 02:55:35;;;;;;;3.30;2.17;;;;;;;;;;4982450;28;20290;-85
2023/03/11 02:58:05;;;;;;;7.43;2.50;;;;;;;;;;4983658;28;20263;-85
2023/03/11 03:00:34;;;;;;;2.15;2.05;;;;;;;;;;4983188;28;20286;-85
2023/03/11 03:03:06;;;;;;;8.45;3.83;;;;;;;;;;4981820;28;20679;-85
2023/03/11 03:05:34;;;;;;;7.15;4.78;;;;;;;;;;4982697;28;20252;-85
2023/03/11 03:08:03;;;;;;;2.85;2.65;;;;;;;;;;4980633;28;20299;-85
2023/03/11 03:10:33;;;;;;;5.25;2.55;;;;;;;;;;4983468;28;20267;-85
2023/03/11 03:13:01;;;;;;;7.75;4.78;;;;;;;;;;4983715;28;20569;-85
2023/03/11 03:15:32;;;;;;;2.88;2.50;;;;;;;;;;4998746;28;20333;-85
2023/03/11 03:18:02;;;;;;;7.07;3.03;;;;;;;;;;4981456;28;20208;-85
2023/03/11 03:20:31;;;;;;;4.47;2.85;;;;;;;;;;4997934;28;20199;-85
2023/03/11 03:23:02;;;;;;;6.93;4.53;;;;;;;;;;4981741;28;20207;-85
2023/03/11 03:25:33;;;;;;;2.55;2.00;;;;;;;;;;4980371;28;20704;-85
2023/03/11 03:28:05;;;;;;;2.10;1.90;;;;;;;;;;4981386;28;20290;-85
2023/03/11 03:30:39;;;;;;;2.50;1.80;;;;;;;;;;4981561;28;20187;-85
2023/03/11 03:33:07;;;;;;;1.88;1.60;;;;;;;;;;4982702;28;20729;-85
2023/03/11 03:35:36;;;;;;;1.67;1.60;;;;;;;;;;4980877;28;20297;-85
2023/03/11 03:38:11;;;;;;;3.90;2.40;;;;;;;;;;4997907;28;20290;-85
2023/03/11 03:40:40;;;;;;;4.40;1.95;;;;;;;;;;4981570;28;20282;-85
2023/03/11 03:43:09;;;;;;;3.83;2.03;;;;;;;;;;5011544;28;20202;-85
2023/03/11 03:45:41;;;;;;;4.68;2.10;;;;;;;;;;5004875;28;20645;-84
2023/03/11 03:48:09;;;;;;;8.00;1.85;;;;;;;;;;5005604;28;20213;-84
2023/03/11 03:50:44;;;;;;;1.80;1.70;;;;;;;;;;5020117;28;20246;-84
2023/03/11 03:53:17;;;;;;;3.25;1.90;;;;;;;;;;5004360;28;20375;-85
2023/03/11 03:55:45;;;;;;;3.03;1.80;;;;;;;;;;5004198;28;20293;-85
2023/03/11 03:58:14;;;;;;;2.08;1.40;;;;;;;;;;4997180;28;20298;-84
2023/03/11 04:00:46;;;;;;;8.20;2.25;;;;;;;;;;4985675;28;20329;-84
2023/03/11 04:03:14;;;;;;;4.03;1.83;;;;;;;;;;5014146;28;20269;-84
2023/03/11 04:05:50;;;;;;;3.25;1.90;;;;;;;;;;5002085;28;20270;-85
2023/03/11 04:08:18;;;;;;;3.50;1.30;;;;;;;;;;5002290;28;20341;-85
2023/03/11 04:10:57;;;;;;;3.05;1.50;;;;;;;;;;5002289;28;20246;-85
2023/03/11 04:13:26;;;;;;;4.50;1.58;;;;;;;;;;5001064;28;20269;-85
2023/03/11 04:15:55;;;;;;;4.80;1.98;;;;;;;;;;5002585;28;20210;-85
2023/03/11 04:18:24;;;;;;;4.43;1.90;;;;;;;;;;4984942;28;20293;-85
2023/03/11 04:20:52;;;;;;;1.75;1.63;;;;;;;;;;5000465;28;20662;-84
2023/03/11 04:23:21;;;;;;;9.32;1.75;;;;;;;;;;4999938;28;20285;-85
2023/03/11 04:25:50;;;;;;;3.40;1.65;;;;;;;;;;4999908;28;20234;-85
2023/03/11 04:28:19;;;;;;;2.65;1.23;;;;;;;;;;4983279;28;20293;-85
2023/03/11 04:30:47;;;;;;;3.88;1.48;;;;;;;;;;5000694;28;20285;-85
2023/03/11 04:33:17;;;;;;;2.80;1.70;;;;;;;;;;4999998;28;20607;-85
2023/03/11 04:35:48;;;;;;;4.40;1.67;;;;;;;;;;4984968;28;20184;-85
2023/03/11 04:38:18;;;;;;;2.05;1.45;;;;;;;;;;5000980;28;20254;-86
2023/03/11 04:40:47;;;;;;;4.53;1.60;;;;;;;;;;5001588;28;20229;-85
2023/03/11 04:43:15;;;;;;;4.07;1.70;;;;;;;;;;4999830;28;20190;-85
2023/03/11 04:45:44;;;;;;;3.05;1.30;;;;;;;;;;5000104;28;20198;-85
2023/03/11 04:48:13;;;;;;;4.80;1.70;;;;;;;;;;4980064;28;20255;-85
2023/03/11 04:50:44;;;;;;;3.05;1.30;;;;;;;;;;5003824;28;20263;-85
2023/03/11 04:53:12;;;;;;;1.50;1.40;;;;;;;;;;4993763;28;20242;-85
2023/03/11 04:55:41;;;;;;;4.10;1.85;;;;;;;;;;5011043;28;20214;-84
2023/03/11 04:58:10;;;;;;;3.88;1.40;;;;;;;;;;4987911;28;20298;-85
2023/03/11 05:00:40;;;;;;;8.30;3.33;;;;;;;;;;4999547;28;20714;-85
2023/03/11 05:03:12;;;;;;;9.32;1.80;;;;;;;;;;4965212;28;20636;-85
2023/03/11 05:05:41;;;;;;;2.10;1.42;;;;;;;;;;4981748;28;20261;-85
2023/03/11 05:08:12;;;;;;;3.30;1.70;;;;;;;;;;4981377;28;20226;-85
2023/03/11 05:10:41;;;;;;;2.58;1.40;;;;;;;;;;4980983;28;20293;-84
2023/03/11 05:13:11;;;;;;;3.15;1.67;;;;;;;;;;4979754;28;20234;-85
2023/03/11 05:15:41;;;;;;;1.70;1.20;;;;;;;;;;4980145;28;20217;-84
2023/03/11 05:18:10;;;;;;;2.13;1.55;;;;;;;;;;4979702;28;20350;-85
2023/03/11 05:20:40;;;;;;;3.25;1.80;;;;;;;;;;4980954;28;20219;-85
2023/03/11 05:23:09;;;;;;;5.68;1.67;;;;;;;;;;4980083;28;20652;-85
2023/03/11 05:25:40;;;;;;;9.18;2.50;;;;;;;;;;4981893;28;20267;-85
2023/03/11 05:28:09;;;;;;;9.45;1.70;;;;;;;;;;4979882;28;20212;-84
2023/03/11 05:30:42;;;;;;;3.28;1.65;;;;;;;;;;4980224;28;20243;-84
2023/03/11 05:33:11;;;;;;;7.47;2.03;;;;;;;;;;4997281;28;20614;-83
2023/03/11 05:35:41;;;;;;;5.22;1.33;;;;;;;;;;4982427;28;20290;-83
2023/03/11 05:38:10;;;;;;;2.78;1.52;;;;;;;;;;4999087;28;20285;-83
2023/03/11 05:40:40;;;;;;;1.55;1.40;;;;;;;;;;4982765;28;20206;-84
2023/03/11 05:43:09;;;;;;;4.70;2.53;;;;;;;;;;4983150;28;20213;-84
2023/03/11 05:45:40;;;;;;;2.25;1.85;;;;;;;;;;4999405;28;20254;-84
2023/03/11 05:48:09;;;;;;;10.38;2.53;;;;;;;;;;4999168;28;20238;-84
2023/03/11 05:50:39;;;;;;;3.25;2.70;;;;;;;;;;5001575;28;20261;-84
2023/03/11 05:53:08;;;;;;;4.70;1.92;;;;;;;;;;5004976;28;20321;-84
2023/03/11 05:55:36;;;;;;;2.90;1.67;;;;;;;;;;5006612;28;20272;-85
2023/03/11 05:58:07;;;;;;;5.63;1.80;;;;;;;;;;5004540;28;20661;-84
2023/03/11 06:00:35;;;;;;;7.03;1.52;;;;;;;;;;5005645;28;20338;-84
2023/03/11 06:03:06;;;;;;;2.03;1.15;;;;;;;;;;4988338;28;20278;-84
2023/03/11 06:05:34;;;;;;;4.35;1.63;;;;;;;;;;5004991;28;20674;-84
2023/03/11 06:08:03;;;;;;;3.13;1.60;;;;;;;;;;5007373;28;20301;-84
2023/03/11 06:10:32;;;;;;;2.42;2.20;;;;;;;;;;5007902;28;20745;-84
2023/03/11 06:13:00;;;;;;;9.18;2.40;;;;;;;;;;4990437;28;20292;-84
2023/03/11 06:15:34;;;;;;;6.05;1.90;;;;;;;;;;5005102;28;20206;-84
2023/03/11 06:18:03;;;;;;;6.63;1.85;;;;;;;;;;5005365;28;20278;-84
2023/03/11 06:20:31;;;;;;;5.20;1.50;;;;;;;;;;5004464;28;20733;-84
2023/03/11 06:23:00;;;;;;;5.78;1.70;;;;;;;;;;5002331;28;20285;-85
2023/03/11 06:25:29;;;;;;;8.55;1.65;;;;;;;;;;5003747;28;20202;-84
2023/03/11 06:27:57;;;;;;;9.30;3.22;;;;;;;;;;5004466;28;20266;-84
2023/03/11 06:30:26;;;;;;;8.85;2.00;;;;;;;;;;5003304;28;20287;-84
2023/03/11 06:33:16;;;;;;;8.65;2.60;;;;;;;;;;4986515;28;20286;-85
2023/03/11 06:35:45;;;;;;;4.22;1.98;;;;;;;;;;4986820;28;20263;-85
2023/03/11 06:38:13;;;;;;;7.03;2.00;;;;;;;;;;4970545;28;20286;-85
2023/03/11 06:40:43;;;;;;;3.63;1.45;;;;;;;;;;4994571;28;20324;-85
2023/03/11 06:43:16;;;;;;;4.53;2.25;;;;;;;;;;5004406;28;20203;-85
2023/03/11 06:45:46;;;;;;;2.53;1.20;;;;;;;;;;4985780;28;20345;-85
2023/03/11 06:48:14;;;;;;;3.78;1.63;;;;;;;;;;4987915;28;20661;-85
2023/03/11 06:50:44;;;;;;;6.57;1.58;;;;;;;;;;5001087;28;20254;-85
2023/03/11 06:53:13;;;;;;;3.90;2.42;;;;;;;;;;5003543;28;20315;-85
2023/03/11 06:55:41;;;;;;;8.30;2.15;;;;;;;;;;5002924;28;20285;-85
2023/03/11 06:58:10;;;;;;;9.50;2.63;;;;;;;;;;5003350;28;20207;-86
2023/03/11 07:00:38;;;;;;;5.55;2.45;;;;;;;;;;4983990;28;20493;-85
2023/03/11 07:03:07;;;;;;;12.40;2.45;;;;;;;;;;4982695;28;20243;-85
2023/03/11 07:05:35;;;;;;;2.10;1.90;;;;;;;;;;5001528;28;20246;-84
2023/03/11 07:08:10;;;;;;;4.05;3.13;;;;;;;;;;4983573;28;20271;-84
2023/03/11 07:10:38;;;;;;;3.33;2.03;;;;;;;;;;4982755;28;20282;-86
2023/03/11 07:13:07;;;;;;;5.47;1.88;;;;;;;;;;4983741;28;20290;-84
2023/03/11 07:15:35;;;;;;;6.10;2.85;;;;;;;;;;4980562;28;20290;-85
2023/03/11 07:18:04;;;;;;;2.95;2.20;;;;;;;;;;4982011;28;20294;-84
2023/03/11 07:20:32;;;;;;;4.20;1.33;;;;;;;;;;4981731;28;20286;-85
2023/03/11 07:23:00;;;;;;;7.18;2.13;;;;;;;;;;4984367;28;20286;-84
2023/03/11 07:25:30;;;;;;;2.33;1.50;;;;;;;;;;4999425;28;20682;-84
2023/03/11 07:27:59;;;;;;;5.43;2.10;;;;;;;;;;4983846;28;20306;-85
2023/03/11 07:30:28;;;;;;;2.53;1.73;;;;;;;;;;5004183;28;20633;-85
2023/03/11 07:32:57;;;;;;;5.25;2.28;;;;;;;;;;5002075;28;20258;-85
2023/03/11 07:35:25;;;;;;;2.90;2.40;;;;;;;;;;4999398;28;20258;-84
2023/03/11 07:37:53;;;;;;;6.93;3.25;;;;;;;;;;5002847;28;20301;-83
2023/03/11 07:40:22;;;;;;;6.45;2.60;;;;;;;;;;5000348;28;20285;-83
2023/03/11 07:42:52;;;;;;;4.80;3.45;;;;;;;;;;5001883;28;20203;-84
2023/03/11 07:45:22;;;;;;;3.78;2.30;;;;;;;;;;5003011;28;20190;-84
2023/03/11 07:47:51;;;;;;;4.18;2.60;;;;;;;;;;5006364;28;20306;-84
2023/03/11 07:50:21;;;;;;;2.45;2.30;;;;;;;;;;4990006;28;20207;-85
2023/03/11 07:52:50;;;;;;;6.00;3.97;;;;;;;;;;5004191;28;20230;-84
2023/03/11 07:55:18;;;;;;;5.05;2.90;;;;;;;;;;5008327;28;20234;-83
2023/03/11 07:57:50;;;;;;;7.78;3.60;;;;;;;;;;5007923;28;20230;-83
2023/03/11 08:00:23;;;;;;;5.07;2.60;;;;;;;;;;5009353;28;20620;-85
2023/03/11 08:02:52;;;;;;;3.53;2.80;;;;;;;;;;5005751;28;20194;-88
2023/03/11 08:05:22;;;;;;;6.00;3.10;;;;;;;;;;5003300;28;20199;-85
2023/03/11 08:07:50;;;;;;;4.70;2.95;;;;;;;;;;5005446;28;20222;-87
2023/03/11 08:10:19;;;;;;;5.13;2.80;;;;;;;;;;4987160;28;20698;-85
2023/03/11 08:12:48;;;;;;;4.13;3.63;;;;;;;;;;4999877;28;20246;-86
2023/03/11 08:15:18;;;;;;;8.85;3.50;;;;;;;;;;4996147;28;20270;-86
2023/03/11 08:17:48;;;;;;;6.40;3.42;;;;;;;;;;5003891;28;20275;-86
2023/03/11 08:20:17;;;;;;;3.70;3.40;;;;;;;;;;5007728;28;20281;-87
2023/03/11 08:22:45;;;;;;;8.82;3.80;;;;;;;;;;4988165;28;20266;-86
2023/03/11 08:25:14;;;;;;;12.57;3.83;;;;;;;;;;4984307;28;20779;-86
2023/03/11 08:27:45;;;;;;;4.13;3.80;;;;;;;;;;5003684;28;20211;-87
2023/03/11 08:30:14;;;;;;;4.05;3.85;;;;;;;;;;5003883;28;20270;-87
2023/03/11 08:32:42;;;;;;;6.38;5.57;;;;;;;;;;5001036;28;20205;-86
2023/03/11 08:35:13;;;;;;;6.03;5.60;;;;;;;;;;4987065;28;20289;-85
2023/03/11 08:37:42;;;;;;;5.57;5.25;;;;;;;;;;5004624;28;20329;-87
2023/03/11 08:40:14;;;;;;;6.75;6.40;;;;;;;;;;5001467;28;20198;-88
2023/03/11 08:42:44;;;;;;;7.28;6.63;;;;;;;;;;5001063;28;20290;-87
2023/03/11 08:45:13;;;;;;;7.28;5.95;;;;;;;;;;4999948;28;20285;-86
2023/03/11 08:47:41;;;;;;;9.32;6.38;;;;;;;;;;4984002;28;20218;-86
2023/03/11 08:50:13;;;;;;;8.13;7.32;;;;;;;;;;5002132;28;20256;-86
2023/03/11 08:52:43;;;;;;;7.75;6.95;;;;;;;;;;4997756;28;20705;-86
2023/03/11 08:55:15;;;;;;;9.02;6.30;;;;;;;;;;5000016;28;20708;-85
2023/03/11 08:57:43;;;;;;;8.75;7.05;;;;;;;;;;4999997;28;20187;-85
2023/03/11 09:00:13;;;;;;;8.32;7.78;;;;;;;;;;4999557;28;20281;-85
2023/03/11 09:02:42;;;;;;;8.60;7.80;;;;;;;;;;4999095;28;20278;-84
2023/03/11 09:05:10;;;;;;;11.10;8.40;;;;;;;;;;4991123;28;20286;-84
2023/03/11 09:07:39;;;;;;;11.10;8.50;;;;;;;;;;4999771;28;20317;-85
2023/03/11 09:10:10;;;;;;;7.45;7.07;;;;;;;;;;4998720;28;20258;-85
2023/03/11 09:12:38;;;;;;;8.38;7.85;;;;;;;;;;4999403;28;20640;-83
2023/03/11 09:15:07;;;;;;;10.10;9.57;;;;;;;;;;4979215;28;20251;-83
2023/03/11 09:17:35;;;;;;;9.45;8.93;;;;;;;;;;4992853;28;20729;-84
2023/03/11 09:20:04;;;;;;;8.75;7.93;;;;;;;;;;4997338;28;20278;-85
2023/03/11 09:22:33;;;;;;;11.60;10.55;;;;;;;;;;4997933;28;20250;-85
2023/03/11 09:25:01;;;;;;;10.35;9.85;;;;;;;;;;4997879;28;20250;-85
2023/03/11 09:27:31;;;;;;;12.27;11.48;;;;;;;;;;4999260;28;20253;-88
2023/03/11 09:30:00;;;;;;;11.20;10.20;;;;;;;;;;4997761;28;20761;-87
2023/03/11 09:32:28;;;;;;;9.20;8.75;;;;;;;;;;4982707;28;20274;-86
2023/03/11 09:34:58;;;;;;;10.35;9.40;;;;;;;;;;4997727;28;20336;-84
2023/03/11 09:37:29;;;;;;;9.23;8.63;;;;;;;;;;5000122;28;20285;-85
2023/03/11 09:39:57;;;;;;;9.77;9.25;;;;;;;;;;5000681;28;20652;-86
2023/03/11 09:42:30;;;;;;;9.57;8.88;;;;;;;;;;5000873;28;20191;-85
2023/03/11 09:45:03;;;;;;;10.70;9.75;;;;;;;;;;5002030;28;20666;-84
2023/03/11 09:47:38;;;;;;;9.88;9.35;;;;;;;;;;4991654;28;20827;-85
2023/03/11 09:50:14;;;;;;;11.30;10.50;;;;;;;;;;5000257;28;20284;-85
2023/03/11 09:52:44;;;;;;;11.88;11.05;;;;;;;;;;4981561;28;20354;-85
2023/03/11 09:55:22;;;;;;;10.75;9.88;;;;;;;;;;4989451;28;20270;-86
2023/03/11 09:57:51;;;;;;;9.85;8.95;;;;;;;;;;4983107;28;20543;-86
2023/03/11 10:00:24;;;;;;;9.38;8.95;;;;;;;;;;4981032;28;20630;-85
2023/03/11 10:02:56;;;;;;;15.77;11.20;;;;;;;;;;4983201;28;20639;-85
2023/03/11 10:05:26;;;;;;;11.13;10.30;;;;;;;;;;5000088;28;20628;-85
2023/03/11 10:07:56;;;;;;;11.25;10.45;;;;;;;;;;4999640;28;20297;-85
2023/03/11 10:10:25;;;;;;;11.38;10.57;;;;;;;;;;4999782;28;20737;-85
2023/03/11 10:12:56;;;;;;;9.80;9.18;;;;;;;;;;4999533;28;20757;-85
2023/03/11 10:15:32;;;;;;;9.90;9.30;;;;;;;;;;5000800;28;20300;-84
2023/03/11 10:18:11;;;;;;;10.70;9.70;;;;;;;;;;4998133;28;20203;-84
2023/03/11 10:20:43;;;;;;;10.35;9.50;;;;;;;;;;4999289;28;20270;-85
2023/03/11 10:23:18;;;;;;;9.68;9.10;;;;;;;;;;4998723;28;20274;-84
2023/03/11 10:25:50;;;;;;;14.90;10.15;;;;;;;;;;5000079;28;20721;-84
2023/03/11 10:28:19;;;;;;;10.07;9.57;;;;;;;;;;4998456;28;20265;-85
2023/03/11 10:30:51;;;;;;;10.70;9.63;;;;;;;;;;4999206;28;20209;-84
2023/03/11 10:33:23;;;;;;;11.25;9.90;;;;;;;;;;5001444;28;20532;-85
2023/03/11 10:35:53;;;;;;;10.43;9.73;;;;;;;;;;5006564;28;20263;-85
2023/03/11 10:38:22;;;;;;;14.15;13.15;;;;;;;;;;5018077;28;20183;-84
2023/03/11 10:40:53;;;;;;;10.82;9.90;;;;;;;;;;5001216;28;20203;-84
2023/03/11 10:43:26;;;;;;;11.00;10.18;;;;;;;;;;5016278;28;20285;-85
2023/03/11 10:45:56;;;;;;;10.95;10.07;;;;;;;;;;5007387;28;20251;-84
2023/03/11 10:48:25;;;;;;;10.32;9.73;;;;;;;;;;5005586;28;20246;-86
2023/03/11 10:50:58;;;;;;;10.60;10.05;;;;;;;;;;5007215;28;20246;-85
2023/03/11 10:53:26;;;;;;;10.55;9.88;;;;;;;;;;4990464;28;20233;-86
2023/03/11 10:55:56;;;;;;;11.15;10.55;;;;;;;;;;5005865;28;20273;-85
2023/03/11 10:58:32;;;;;;;9.98;9.50;;;;;;;;;;5010392;28;20203;-86
2023/03/11 11:01:05;;;;;;;10.35;9.45;;;;;;;;;;5008544;28;20186;-86
2023/03/11 11:03:42;;;;;;;9.60;9.18;;;;;;;;;;4960620;28;20285;-86
2023/03/11 11:06:20;;;;;;;9.80;9.20;;;;;;;;;;5008363;28;20179;-85
2023/03/11 11:08:48;;;;;;;10.05;9.48;;;;;;;;;;5007692;28;20290;-86
2023/03/11 11:11:22;;;;;;;10.50;10.00;;;;;;;;;;5007686;28;20293;-87
2023/03/11 11:13:57;;;;;;;10.10;9.80;;;;;;;;;;5007442;28;20255;-85
2023/03/11 11:16:28;;;;;;;11.18;10.40;;;;;;;;;;5006476;28;20246;-85
2023/03/11 11:19:00;;;;;;;11.02;10.27;;;;;;;;;;4999868;28;20274;-84
2023/03/11 11:21:31;;;;;;;10.98;10.48;;;;;;;;;;4985284;28;20183;-85
2023/03/11 11:24:15;;;;;;;10.55;10.05;;;;;;;;;;5006194;28;20243;-85
2023/03/11 11:27:03;;;;;;;11.43;10.82;;;;;;;;;;5004007;28;20190;-85
2023/03/11 11:29:33;;;;;;;10.85;10.40;;;;;;;;;;4986004;28;20241;-85
2023/03/11 11:32:17;;;;;;;10.55;10.05;;;;;;;;;;5001452;28;20650;-85
2023/03/11 11:34:54;;;;;;;11.63;11.00;;;;;;;;;;5003948;28;20274;-86
2023/03/11 11:37:25;;;;;;;12.45;11.68;;;;;;;;;;5001798;28;20274;-86
2023/03/11 11:40:00;;;;;;;14.63;12.18;;;;;;;;;;5004584;28;20269;-85
2023/03/11 11:42:31;;;;;;;12.20;11.68;;;;;;;;;;5002914;28;20687;-86
2023/03/11 11:45:03;;;;;;;13.07;12.38;;;;;;;;;;5003800;28;20278;-84
2023/03/11 11:47:36;;;;;;;12.68;12.00;;;;;;;;;;4985426;28;20203;-85
2023/03/11 11:50:07;;;;;;;13.05;12.35;;;;;;;;;;5009545;28;20222;-88
2023/03/11 11:52:37;;;;;;;13.52;12.82;;;;;;;;;;5002465;28;20222;-85
2023/03/11 11:55:10;;;;;;;12.83;12.23;;;;;;;;;;5001957;28;20199;-85
2023/03/11 11:57:39;;;;;;;17.73;15.97;;;;;;;;;;5002627;28;20685;-85
2023/03/11 12:00:19;;;;;;;12.13;11.43;;;;;;;;;;5006337;28;20646;-85
2023/03/11 12:02:57;;;;;;;14.53;13.63;;;;;;;;;;5001015;28;20597;-86
2023/03/11 12:05:28;;;;;;;12.80;11.98;;;;;;;;;;5009499;28;20675;-85
2023/03/11 12:08:04;;;;;;;13.50;12.13;;;;;;;;;;5001944;28;20297;-86
2023/03/11 12:10:34;;;;;;;18.90;16.45;;;;;;;;;;5001312;28;20301;-86
2023/03/11 12:13:22;;;;;;;14.10;12.80;;;;;;;;;;4985380;28;20282;-86
2023/03/11 12:15:54;;;;;;;12.35;11.50;;;;;;;;;;5002553;28;20277;-86
2023/03/11 12:18:27;;;;;;;21.30;16.63;;;;;;;;;;5001587;28;20237;-85
2023/03/11 12:20:56;;;;;;;35.22;23.58;;;;;;;;;;4983415;28;20275;-85
2023/03/11 12:23:29;;;;;;;13.77;12.70;;;;;;;;;;5000942;28;20290;-85
2023/03/11 12:26:13;;;;;;;17.15;15.75;;;;;;;;;;5000306;28;20564;-86
2023/03/11 12:28:44;;;;;;;16.98;15.32;;;;;;;;;;4980903;28;20255;-85
2023/03/11 12:31:14;;;;;;;14.27;13.23;;;;;;;;;;4999141;28;20222;-86
2023/03/11 12:33:45;;;;;;;14.70;13.70;;;;;;;;;;5012747;28;20791;-84
2023/03/11 12:36:24;;;;;;;18.27;16.87;;;;;;;;;;4980170;28;20985;-85
2023/03/11 12:38:54;;;;;;;15.63;14.77;;;;;;;;;;5001714;28;20697;-87
2023/03/11 12:41:31;;;;;;;13.90;13.10;;;;;;;;;;5000898;28;20959;-86
2023/03/11 12:44:03;;;;;;;14.10;12.80;;;;;;;;;;4983574;28;20701;-86
2023/03/11 12:46:50;;;;;;;13.10;12.20;;;;;;;;;;5001243;28;20662;-86
2023/03/11 12:49:24;;;;;;;13.20;12.70;;;;;;;;;;5004600;28;20767;-85
2023/03/11 12:52:03;;;;;;;13.23;12.63;;;;;;;;;;4999100;28;20618;-86
2023/03/11 12:54:32;;;;;;;12.73;12.13;;;;;;;;;;4998832;28;20744;-86
2023/03/11 12:57:04;;;;;;;13.00;12.40;;;;;;;;;;4983851;28;20716;-87
2023/03/11 13:02:56;;;;;;;14.13;13.07;;;;;;;;;;4968449;28;20737;-84
2023/03/11 13:05:28;;;;;;;13.30;12.60;;;;;;;;;;4997002;28;20718;-83
2023/03/11 13:07:59;;;;;;;14.63;13.33;;;;;;;;;;5000113;28;20720;-86
2023/03/11 13:10:39;;;;;;;14.47;13.57;;;;;;;;;;4982795;28;21011;-85
2023/03/11 13:13:22;;;;;;;13.10;12.50;;;;;;;;;;4999589;28;20756;-85
2023/03/11 13:15:50;;;;;;;13.67;12.90;;;;;;;;;;4979945;28;20635;-85
2023/03/11 13:18:23;;;;;;;13.03;12.33;;;;;;;;;;4998659;28;20621;-85
2023/03/11 13:20:55;;;;;;;13.80;13.00;;;;;;;;;;4996510;28;21152;-86
2023/03/11 13:23:25;;;;;;;13.10;12.60;;;;;;;;;;4993816;28;20735;-86
2023/03/11 13:26:12;;;;;;;13.20;12.63;;;;;;;;;;4998560;28;20622;-85
2023/03/11 13:29:01;;;;;;;13.77;13.17;;;;;;;;;;4999115;28;21163;-85
2023/03/11 13:31:43;;;;;;;13.63;12.97;;;;;;;;;;4999939;28;20619;-85
2023/03/11 13:34:15;;;;;;;13.83;13.13;;;;;;;;;;4980694;28;20661;-85
2023/03/11 13:36:59;;;;;;;14.23;13.20;;;;;;;;;;4995519;28;20665;-84
2023/03/11 13:39:37;;;;;;;14.00;13.07;;;;;;;;;;5000863;28;20628;-84
2023/03/11 13:42:14;;;;;;;13.47;12.73;;;;;;;;;;5003809;28;20677;-85
2023/03/11 13:44:42;;;;;;;13.30;12.80;;;;;;;;;;4998560;28;20720;-84
2023/03/11 13:47:14;;;;;;;14.20;13.53;;;;;;;;;;4987415;28;20954;-85
2023/03/11 13:49:44;;;;;;;13.17;12.43;;;;;;;;;;4991548;28;20612;-85
2023/03/11 13:52:16;;;;;;;14.13;13.27;;;;;;;;;;5003228;28;20736;-85
2023/03/11 13:54:46;;;;;;;13.70;13.00;;;;;;;;;;5001251;28;20741;-86
2023/03/11 13:57:21;;;;;;;15.47;14.50;;;;;;;;;;4999311;28;20696;-87
2023/03/11 13:59:52;;;;;;;14.70;13.83;;;;;;;;;;4983197;28;21079;-86
2023/03/11 14:02:23;;;;;;;14.13;13.53;;;;;;;;;;5000344;28;20690;-86
2023/03/11 14:04:52;;;;;;;13.60;12.70;;;;;;;;;;5002425;28;20588;-87
2023/03/11 14:07:24;;;;;;;15.30;14.20;;;;;;;;;;4985674;28;20737;-85
2023/03/11 14:10:08;;;;;;;14.67;13.87;;;;;;;;;;4983912;28;20595;-84
2023/03/11 14:12:37;;;;;;;14.27;13.47;;;;;;;;;;4965235;28;20710;-86
2023/03/11 14:15:07;;;;;;;13.90;13.23;;;;;;;;;;5004417;28;20700;-84
2023/03/11 14:17:36;;;;;;;13.90;13.33;;;;;;;;;;4999642;28;21203;-84
2023/03/11 14:20:06;;;;;;;14.00;13.00;;;;;;;;;;4996991;28;20877;-83
2023/03/11 14:22:37;;;;;;;13.77;13.17;;;;;;;;;;4997819;28;20660;-84
2023/03/11 14:25:08;;;;;;;13.10;12.47;;;;;;;;;;5005057;28;21116;-84
2023/03/11 14:27:38;;;;;;;12.77;12.20;;;;;;;;;;5005264;28;20783;-84
2023/03/11 14:30:08;;;;;;;14.67;13.53;;;;;;;;;;5004868;28;20727;-83
2023/03/11 14:32:36;;;;;;;14.73;13.57;;;;;;;;;;5002764;28;20721;-83
2023/03/11 14:35:19;;;;;;;13.60;13.00;;;;;;;;;;5004028;28;21043;-84
2023/03/11 14:37:49;;;;;;;14.25;13.45;;;;;;;;;;4999485;28;20715;-83
2023/03/11 14:40:26;;;;;;;14.40;13.23;;;;;;;;;;5003180;28;20285;-84
2023/03/11 14:42:55;;;;;;;13.97;13.10;;;;;;;;;;5002331;28;20254;-84
2023/03/11 14:45:25;;;;;;;15.30;14.20;;;;;;;;;;4996277;28;20779;-83
2023/03/11 14:47:58;;;;;;;14.73;13.82;;;;;;;;;;5003005;28;20270;-84
2023/03/11 14:50:30;;;;;;;15.03;14.03;;;;;;;;;;5003602;28;20289;-84
2023/03/11 14:53:02;;;;;;;15.15;13.95;;;;;;;;;;5004243;28;20713;-84
2023/03/11 14:55:33;;;;;;;14.30;13.52;;;;;;;;;;5002523;28;20273;-84
2023/03/11 14:58:04;;;;;;;15.07;14.30;;;;;;;;;;5004718;28;20250;-83